createdAt,value
2022-09-13T00:00:24.863Z,100112.88
2022-09-13T00:02:54.416Z,100115.34
2022-09-13T00:05:26.541Z,100115.13
2022-09-13T00:07:56.139Z,100114.56
2022-09-13T00:10:26.440Z,100108.03
2022-09-13T00:12:56.415Z,100100.53
2022-09-13T00:15:25.955Z,100082.59
2022-09-13T00:17:56.020Z,100079.34
2022-09-13T00:20:28.499Z,100068.06
2022-09-13T00:22:58.115Z,100078.28
2022-09-13T00:25:27.680Z,100078.41
2022-09-13T00:27:57.236Z,100080.34
2022-09-13T00:30:26.757Z,100071.50
2022-09-13T00:32:56.547Z,100057.69
2022-09-13T00:35:28.691Z,100056.97
2022-09-13T00:37:58.219Z,100059.91
2022-09-13T00:40:28.005Z,100064.00
2022-09-13T00:42:57.545Z,100059.63
2022-09-13T00:45:27.203Z,100065.81
2022-09-13T00:47:59.478Z,100064.00
2022-09-13T00:50:34.555Z,100065.09
2022-09-13T00:53:06.128Z,100065.22
2022-09-13T00:55:40.304Z,100058.78
2022-09-13T00:58:13.180Z,100060.75
2022-09-13T01:00:42.875Z,100067.28
2022-09-13T01:03:15.165Z,100062.94
2022-09-13T01:05:50.259Z,100065.97
2022-09-13T01:08:22.395Z,100063.06
2022-09-13T01:10:52.460Z,100057.84
2022-09-13T01:13:23.435Z,100059.91
2022-09-13T01:15:53.313Z,100047.56
2022-09-13T01:18:23.350Z,100063.69
2022-09-13T01:21:21.761Z,100056.53
2022-09-13T01:24:13.020Z,100058.72
2022-09-13T01:27:08.307Z,100051.22
2022-09-13T01:30:11.615Z,100040.66
2022-09-13T01:32:49.910Z,100049.66
2022-09-13T01:35:26.699Z,100049.16
2022-09-13T01:37:58.216Z,100039.84
2022-09-13T01:40:38.456Z,100029.41
2022-09-13T01:43:26.806Z,100034.53
2022-09-13T01:46:07.205Z,100033.06
2022-09-13T01:48:49.000Z,100028.72
2022-09-13T01:51:25.220Z,100027.00
2022-09-13T01:54:00.950Z,100026.88
2022-09-13T01:56:35.784Z,100027.72
2022-09-13T01:59:10.443Z,100030.28
2022-09-13T02:01:45.827Z,100028.44
2022-09-13T02:04:19.542Z,100030.03
2022-09-13T02:06:52.860Z,100032.94
2022-09-13T02:09:24.963Z,100025.91
2022-09-13T02:12:00.528Z,100032.22
2022-09-13T02:14:33.897Z,100028.72
2022-09-13T02:17:10.521Z,100027.88
2022-09-13T02:19:43.651Z,100020.84
2022-09-13T02:22:16.453Z,100029.69
2022-09-13T02:24:49.267Z,100032.34
2022-09-13T02:27:22.448Z,100035.72
2022-09-13T02:29:55.459Z,100038.25
2022-09-13T02:32:31.032Z,100034.03
2022-09-13T02:35:04.032Z,100041.44
2022-09-13T02:37:36.007Z,100030.88
2022-09-13T02:40:09.360Z,100027.50
2022-09-13T02:42:42.559Z,100028.13
2022-09-13T02:45:13.104Z,100031.75
2022-09-13T02:47:54.786Z,100028.22
2022-09-13T02:50:36.302Z,100035.13
2022-09-13T02:53:08.581Z,100023.63
2022-09-13T02:55:45.353Z,100020.00
2022-09-13T02:58:20.001Z,100024.34
2022-09-13T03:00:51.239Z,100023.13
2022-09-13T03:03:23.631Z,100021.19
2022-09-13T03:05:53.190Z,100026.28
2022-09-13T03:08:23.999Z,100032.31
2022-09-13T03:11:00.544Z,100033.06
2022-09-13T03:13:39.976Z,100036.19
2022-09-13T03:16:22.767Z,100033.66
2022-09-13T03:19:05.008Z,100045.28
2022-09-13T03:21:47.755Z,100044.31
2022-09-13T03:24:23.884Z,100045.28
2022-09-13T03:27:06.334Z,100048.81
2022-09-13T03:29:40.243Z,100043.47
2022-09-13T03:32:19.259Z,100044.44
2022-09-13T03:34:56.502Z,100049.91
2022-09-13T03:37:31.131Z,100042.03
2022-09-13T03:40:03.188Z,100040.22
2022-09-13T03:42:36.861Z,100042.25
2022-09-13T03:45:09.125Z,100035.38
2022-09-13T03:47:39.540Z,100032.09
2022-09-13T03:50:12.848Z,100036.56
2022-09-13T03:52:46.366Z,100027.72
2022-09-13T03:55:16.377Z,100030.53
2022-09-13T03:57:46.161Z,100024.72
2022-09-13T04:00:18.207Z,100018.53
2022-09-13T04:02:48.035Z,100013.72
2022-09-13T04:05:20.433Z,100012.38
2022-09-13T04:07:50.034Z,100012.50
2022-09-13T04:10:19.568Z,100019.53
2022-09-13T04:12:49.426Z,100016.88
2022-09-13T04:15:19.119Z,100020.63
2022-09-13T04:17:48.718Z,100021.34
2022-09-13T04:20:20.965Z,100019.66
2022-09-13T04:22:54.603Z,100018.06
2022-09-13T04:25:25.507Z,100022.53
2022-09-13T04:27:59.860Z,100014.69
2022-09-13T04:30:29.533Z,100012.16
2022-09-13T04:32:59.511Z,100011.31
2022-09-13T04:35:31.749Z,100010.59
2022-09-13T04:38:01.332Z,100012.28
2022-09-13T04:40:32.050Z,100021.34
2022-09-13T04:43:01.614Z,100016.97
2022-09-13T04:45:31.791Z,100015.16
2022-09-13T04:48:01.408Z,100028.59
2022-09-13T04:50:33.854Z,100012.63
2022-09-13T04:53:05.172Z,100024.97
2022-09-13T04:55:36.716Z,100036.59
2022-09-13T04:58:06.742Z,100034.91
2022-09-13T05:00:36.482Z,100033.94
2022-09-13T05:03:06.203Z,100033.94
2022-09-13T05:05:38.353Z,100027.03
2022-09-13T05:08:07.958Z,100029.56
2022-09-13T05:10:37.567Z,100025.09
2022-09-13T05:13:07.101Z,100033.22
2022-09-13T05:15:36.697Z,100029.00
2022-09-13T05:18:06.502Z,100027.16
2022-09-13T05:20:38.672Z,100019.28
2022-09-13T05:23:08.245Z,100023.75
2022-09-13T05:25:37.815Z,100027.66
2022-09-13T05:28:07.392Z,100025.69
2022-09-13T05:30:41.682Z,100034.31
2022-09-13T05:33:11.811Z,100032.59
2022-09-13T05:35:46.097Z,100030.69
2022-09-13T05:38:15.722Z,100022.56
2022-09-13T05:40:45.322Z,100024.50
2022-09-13T05:43:15.139Z,100028.38
2022-09-13T05:45:44.956Z,100024.72
2022-09-13T05:48:14.922Z,100032.59
2022-09-13T05:50:58.212Z,100036.00
2022-09-13T05:53:28.417Z,100036.09
2022-09-13T05:55:57.977Z,100045.91
2022-09-13T05:58:27.570Z,100047.00
2022-09-13T06:00:57.741Z,100045.19
2022-09-13T06:03:27.753Z,100047.00
2022-09-13T06:06:02.838Z,100049.53
2022-09-13T06:08:34.428Z,100050.41
2022-09-13T06:11:05.639Z,100048.56
2022-09-13T06:13:35.571Z,100052.84
2022-09-13T06:16:07.227Z,100054.41
2022-09-13T06:18:37.286Z,100044.34
2022-09-13T06:21:11.500Z,100058.41
2022-09-13T06:23:41.406Z,100048.47
2022-09-13T06:26:12.753Z,100048.34
2022-09-13T06:28:42.533Z,100056.13
2022-09-13T06:31:14.214Z,100044.22
2022-09-13T06:33:45.089Z,100050.28
2022-09-13T06:36:18.474Z,100047.38
2022-09-13T06:38:48.900Z,100045.44
2022-09-13T06:41:21.876Z,100048.81
2022-09-13T06:43:55.843Z,100042.28
2022-09-13T06:46:25.944Z,100047.25
2022-09-13T06:48:56.008Z,100052.94
2022-09-13T06:51:29.737Z,100057.06
2022-09-13T06:54:00.170Z,100050.75
2022-09-13T06:56:32.466Z,100053.16
2022-09-13T06:59:04.706Z,100049.28
2022-09-13T07:01:36.140Z,100049.88
2022-09-13T07:04:07.343Z,100043.91
2022-09-13T07:06:40.953Z,100035.06
2022-09-13T07:09:12.335Z,100044.41
2022-09-13T07:11:43.565Z,100039.66
2022-09-13T07:14:16.350Z,100041.69
2022-09-13T07:16:46.516Z,100047.66
2022-09-13T07:19:17.492Z,100053.47
2022-09-13T07:21:49.923Z,100043.59
2022-09-13T07:24:19.740Z,100048.19
2022-09-13T07:26:50.024Z,100044.47
2022-09-13T07:29:22.759Z,100047.56
2022-09-13T07:31:54.229Z,100046.94
2022-09-13T07:34:25.580Z,100046.56
2022-09-13T07:36:57.728Z,100050.78
2022-09-13T07:39:27.310Z,100052.94
2022-09-13T07:41:57.180Z,100054.25
2022-09-13T07:44:27.072Z,100054.00
2022-09-13T07:46:56.808Z,100053.00
2022-09-13T07:49:26.611Z,100049.00
2022-09-13T07:51:58.818Z,100047.50
2022-09-13T07:54:28.477Z,100054.13
2022-09-13T07:56:58.046Z,100054.44
2022-09-13T07:59:30.183Z,100067.00
2022-09-13T08:02:00.154Z,100048.06
2022-09-13T08:04:32.415Z,100050.13
2022-09-13T08:07:07.901Z,100056.63
2022-09-13T08:09:37.496Z,100066.66
2022-09-13T08:12:07.483Z,100064.53
2022-09-13T08:14:37.102Z,100069.50
2022-09-13T08:17:06.801Z,100078.09
2022-09-13T08:19:36.359Z,100079.63
2022-09-13T08:22:08.808Z,100084.31
2022-09-13T08:24:38.370Z,100086.47
2022-09-13T08:27:08.361Z,100085.78
2022-09-13T08:29:38.022Z,100081.16
2022-09-13T08:32:07.775Z,100070.38
2022-09-13T08:34:37.904Z,100076.13
2022-09-13T08:37:10.631Z,100082.50
2022-09-13T08:39:40.226Z,100075.31
2022-09-13T08:42:33.999Z,100073.06
2022-09-13T08:45:03.921Z,100071.44
2022-09-13T08:47:38.504Z,100069.50
2022-09-13T08:50:15.524Z,100077.09
2022-09-13T08:52:56.327Z,100073.31
2022-09-13T08:55:28.989Z,100069.50
2022-09-13T08:58:03.106Z,100069.78
2022-09-13T09:00:35.837Z,100068.25
2022-09-13T09:03:14.836Z,100065.72
2022-09-13T09:05:48.075Z,100059.22
2022-09-13T09:08:28.961Z,100060.19
2022-09-13T09:11:00.148Z,100059.34
2022-09-13T09:13:32.111Z,100060.78
2022-09-13T09:16:04.506Z,100062.88
2022-09-13T09:18:36.317Z,100057.94
2022-09-13T09:21:06.946Z,100058.03
2022-09-13T09:23:44.816Z,100052.13
2022-09-13T09:26:20.085Z,100057.59
2022-09-13T09:28:50.716Z,100055.03
2022-09-13T09:31:25.912Z,100061.50
2022-09-13T09:34:03.904Z,100060.91
2022-09-13T09:36:40.917Z,100054.81
2022-09-13T09:39:16.368Z,100054.91
2022-09-13T09:41:46.621Z,100048.00
2022-09-13T09:44:21.345Z,100045.69
2022-09-13T09:46:53.781Z,100047.94
2022-09-13T09:49:39.983Z,100040.66
2022-09-13T09:52:11.983Z,100043.44
2022-09-13T09:54:44.713Z,100049.59
2022-09-13T09:57:14.304Z,100045.28
2022-09-13T09:59:43.927Z,100039.88
2022-09-13T10:02:19.264Z,100035.44
2022-09-13T10:04:58.161Z,100039.31
2022-09-13T10:07:32.386Z,100038.56
2022-09-13T10:10:06.664Z,100034.53
2022-09-13T10:12:38.080Z,100035.19
2022-09-13T10:15:15.463Z,100033.41
2022-09-13T10:17:45.065Z,100030.28
2022-09-13T10:26:36.479Z,100031.91
2022-09-13T10:29:10.290Z,100036.78
2022-09-13T10:31:41.398Z,100038.28
2022-09-13T10:34:16.995Z,100035.16
2022-09-13T10:36:54.737Z,100031.13
2022-09-13T10:39:26.079Z,100041.72
2022-09-13T10:42:00.129Z,100035.72
2022-09-13T10:44:42.533Z,100036.25
2022-09-13T10:47:15.805Z,100029.75
2022-09-13T10:49:49.124Z,100035.22
2022-09-13T10:52:38.336Z,100037.44
2022-09-13T10:55:35.684Z,100028.53
2022-09-13T10:58:23.783Z,100032.63
2022-09-13T11:01:10.358Z,100024.94
2022-09-13T11:03:56.793Z,100026.47
2022-09-13T11:06:32.489Z,100020.28
2022-09-13T11:09:11.817Z,100014.56
2022-09-13T11:11:45.887Z,100018.69
2022-09-13T11:14:28.029Z,100020.69
2022-09-13T11:17:05.170Z,100018.34
2022-09-13T11:20:04.936Z,100010.63
2022-09-13T11:22:52.036Z,100015.00
2022-09-13T11:25:32.528Z,99997.00
2022-09-13T11:28:08.827Z,100007.78
2022-09-13T11:30:49.468Z,100000.53
2022-09-13T11:33:30.516Z,99996.19
2022-09-13T11:36:16.347Z,100003.91
2022-09-13T11:38:57.776Z,99991.13
2022-09-13T11:41:33.142Z,99986.75
2022-09-13T11:44:27.477Z,99992.63
2022-09-13T11:47:06.370Z,99991.16
2022-09-13T11:50:00.822Z,99975.81
2022-09-13T11:52:38.612Z,99975.81
2022-09-13T11:55:17.187Z,99975.28
2022-09-13T11:57:49.931Z,99978.34
2022-09-13T12:00:24.153Z,99968.88
2022-09-13T12:03:03.002Z,99965.50
2022-09-13T12:05:35.227Z,99962.47
2022-09-13T12:08:09.442Z,99965.16
2022-09-13T12:10:43.144Z,99963.97
2022-09-13T12:13:19.594Z,99959.88
2022-09-13T12:15:50.915Z,99955.66
2022-09-13T12:18:27.088Z,99968.44
2022-09-13T12:20:57.853Z,99957.81
2022-09-13T12:23:32.538Z,99951.56
2022-09-13T12:26:06.061Z,99941.06
2022-09-13T12:28:38.996Z,99945.63
2022-09-13T12:31:13.218Z,99950.31
2022-09-13T12:33:45.993Z,99945.63
2022-09-13T12:36:31.707Z,99940.22
2022-09-13T12:39:36.630Z,99945.44
2022-09-13T12:42:41.868Z,99944.75
2022-09-13T12:45:24.584Z,99942.59
2022-09-13T12:48:24.484Z,99932.91
2022-09-13T12:51:20.389Z,99935.47
2022-09-13T12:54:05.670Z,99944.91
2022-09-13T12:56:44.770Z,99947.44
2022-09-13T12:59:35.608Z,99949.81
2022-09-13T13:02:06.566Z,99951.78
2022-09-13T13:04:37.970Z,99944.69
2022-09-13T13:07:19.415Z,99935.44
2022-09-13T13:09:53.902Z,99935.53
2022-09-13T13:12:32.924Z,99938.06
2022-09-13T13:15:04.623Z,99945.16
2022-09-13T13:17:47.658Z,99934.69
2022-09-13T13:20:55.875Z,99943.88
2022-09-13T13:23:31.224Z,99939.00
2022-09-13T13:26:07.887Z,99936.88
2022-09-13T13:28:53.799Z,99938.53
2022-09-13T13:31:37.944Z,99931.28
2022-09-13T13:34:37.173Z,99926.53
2022-09-13T13:37:08.799Z,99930.75
2022-09-13T13:39:42.931Z,99927.94
2022-09-13T14:10:12.706Z,99912.22
2022-09-13T14:12:55.430Z,99903.78
2022-09-13T14:15:34.625Z,99909.25
2022-09-13T14:18:36.806Z,99902.69
2022-09-13T14:21:07.965Z,99901.84
2022-09-13T14:23:40.157Z,99907.25
2022-09-13T14:26:10.225Z,99908.16
2022-09-13T14:28:39.946Z,99908.88
2022-09-13T14:31:09.880Z,99903.03
2022-09-13T14:33:40.216Z,99898.50
2022-09-13T14:36:18.288Z,99901.34
2022-09-13T14:38:55.441Z,99896.97
2022-09-13T14:41:32.966Z,99911.38
2022-09-13T14:44:25.050Z,99899.25
2022-09-13T14:47:01.731Z,99900.94
2022-09-13T14:49:35.119Z,99897.03
2022-09-13T14:52:06.029Z,99903.78
2022-09-13T14:54:41.705Z,99891.94
2022-09-13T14:57:20.561Z,99895.47
2022-09-13T14:59:52.541Z,99894.66
2022-09-13T15:02:24.318Z,99901.91
2022-09-13T15:04:55.207Z,99887.72
2022-09-13T15:07:30.425Z,99893.69
2022-09-13T15:10:10.813Z,99885.09
2022-09-13T15:12:40.960Z,99889.19
2022-09-13T15:15:38.451Z,99891.09
2022-09-13T15:18:10.545Z,99887.41
2022-09-13T15:20:52.340Z,99890.78
2022-09-13T15:23:25.228Z,99893.84
2022-09-13T15:25:59.561Z,99894.19
2022-09-13T15:28:30.678Z,99895.75
2022-09-13T15:31:02.711Z,99884.63
2022-09-13T15:33:34.128Z,99892.59
2022-09-13T15:36:18.369Z,99887.91
2022-09-13T15:39:06.110Z,99886.56
2022-09-13T15:41:39.425Z,99885.91
2022-09-13T15:44:11.997Z,99892.66
2022-09-13T15:46:48.670Z,99893.19
2022-09-13T15:49:20.612Z,99891.00
2022-09-13T15:51:50.242Z,99899.09
2022-09-13T15:54:22.865Z,99890.34
2022-09-13T15:56:55.304Z,99894.06
2022-09-13T15:59:25.272Z,99891.03
2022-09-13T16:01:55.940Z,99893.91
2022-09-13T16:04:25.560Z,99891.41
2022-09-13T16:06:55.174Z,99894.59
2022-09-13T16:09:27.313Z,99891.44
2022-09-13T16:11:59.480Z,99891.72
2022-09-13T16:14:29.542Z,99894.78
2022-09-13T16:16:59.211Z,99895.28
2022-09-13T16:19:28.778Z,99891.06
2022-09-13T16:21:58.365Z,99892.44
2022-09-13T16:24:27.951Z,99886.06
2022-09-13T16:27:02.498Z,99893.44
2022-09-13T16:29:32.072Z,99890.44
2022-09-13T16:32:01.771Z,99893.16
2022-09-13T16:34:31.397Z,99890.09
2022-09-13T16:37:01.070Z,99888.78
2022-09-13T16:39:30.673Z,99890.13
2022-09-13T16:42:04.882Z,99899.88
2022-09-13T16:44:34.536Z,99898.38
2022-09-13T16:47:04.346Z,99896.03
2022-09-13T16:49:33.985Z,99900.56
2022-09-13T16:52:04.039Z,99896.34
2022-09-13T16:54:35.113Z,99906.63
2022-09-13T16:57:10.488Z,99902.75
2022-09-13T16:59:41.249Z,99905.63
2022-09-13T17:02:12.155Z,99906.78
2022-09-13T17:04:42.125Z,99911.81
2022-09-13T17:07:11.712Z,99904.91
2022-09-13T17:09:41.653Z,99906.41
2022-09-13T17:12:15.629Z,99903.91
2022-09-13T17:14:47.587Z,99899.66
2022-09-13T17:17:18.447Z,99909.94
2022-09-13T17:19:48.161Z,99902.88
2022-09-13T17:22:17.776Z,99911.97
2022-09-13T17:24:47.531Z,99911.78
2022-09-13T17:27:19.679Z,99912.09
2022-09-13T17:29:49.370Z,99915.97
2022-09-13T17:32:18.907Z,99913.63
2022-09-13T17:34:48.599Z,99915.78
2022-09-13T17:37:18.272Z,99909.06
2022-09-13T17:39:48.792Z,99905.00
2022-09-13T17:42:23.379Z,99908.19
2022-09-13T17:44:53.299Z,99904.97
2022-09-13T17:47:22.828Z,99903.28
2022-09-13T17:49:52.433Z,99903.03
2022-09-13T17:52:22.053Z,99893.63
2022-09-13T17:54:51.995Z,99894.94
2022-09-13T17:57:24.427Z,99895.44
2022-09-13T17:59:54.874Z,99900.47
2022-09-13T18:02:25.986Z,99906.16
2022-09-13T18:04:55.736Z,99903.94
2022-09-13T18:07:25.331Z,99904.44
2022-09-13T18:09:54.902Z,99918.19
2022-09-13T18:12:27.047Z,99908.91
2022-09-13T18:14:57.601Z,99909.25
2022-09-13T18:17:27.297Z,99902.34
2022-09-13T18:19:56.921Z,99904.38
2022-09-13T18:22:26.495Z,99906.53
2022-09-13T18:24:56.100Z,99912.72
2022-09-13T18:27:28.440Z,99909.00
2022-09-13T18:29:58.101Z,99907.63
2022-09-13T18:32:27.816Z,99901.06
2022-09-13T18:34:57.451Z,99905.91
2022-09-13T18:37:27.141Z,99904.53
2022-09-13T18:39:57.052Z,99904.84
2022-09-13T18:42:33.249Z,99905.81
2022-09-13T18:45:03.016Z,99906.97
2022-09-13T18:47:32.883Z,99901.91
2022-09-13T18:50:02.510Z,99910.13
2022-09-13T18:52:32.045Z,99906.75
2022-09-13T18:55:01.752Z,99908.41
2022-09-13T18:57:34.234Z,99906.69
2022-09-13T19:00:04.017Z,99909.00
2022-09-13T19:02:33.671Z,99912.16
2022-09-13T19:05:06.829Z,99911.47
2022-09-13T19:07:36.692Z,99907.94
2022-09-13T19:10:06.671Z,99901.06
2022-09-13T19:12:38.947Z,99910.41
2022-09-13T19:15:10.337Z,99906.19
2022-09-13T19:17:39.920Z,99911.72
2022-09-13T19:20:10.789Z,99908.50
2022-09-13T19:22:40.335Z,99906.97
2022-09-13T19:25:10.854Z,99909.81
2022-09-13T19:27:43.031Z,99907.41
2022-09-13T19:30:13.765Z,99910.59
2022-09-13T19:32:43.513Z,99917.09
2022-09-13T19:35:13.093Z,99912.88
2022-09-13T19:37:42.887Z,99914.31
2022-09-13T19:40:13.651Z,99905.59
2022-09-13T19:42:45.828Z,99901.38
2022-09-13T19:45:16.358Z,99901.53
2022-09-13T19:50:40.159Z,99904.97
2022-09-13T19:53:09.736Z,99903.28
2022-09-13T19:55:46.655Z,99914.13
2022-09-13T19:58:20.603Z,99911.91
2022-09-13T20:00:50.282Z,99909.53
2022-09-13T20:03:19.880Z,99915.88
2022-09-13T20:05:49.697Z,99911.53
2022-09-13T20:08:19.207Z,99911.69
2022-09-13T20:10:48.845Z,99907.47
2022-09-13T20:13:22.393Z,99895.91
2022-09-13T20:15:52.344Z,99888.97
2022-09-13T20:18:22.003Z,99882.94
2022-09-13T20:20:56.543Z,99885.78
2022-09-13T20:23:26.340Z,99883.25
2022-09-13T20:25:55.897Z,99881.84
2022-09-13T20:28:28.116Z,99878.34
2022-09-13T20:30:58.245Z,99882.16
2022-09-13T20:33:28.063Z,99877.66
2022-09-13T20:35:57.647Z,99884.13
2022-09-13T20:38:27.239Z,99888.81
2022-09-13T20:40:56.910Z,99890.50
2022-09-13T20:43:29.055Z,99889.28
2022-09-13T20:45:59.178Z,99889.03
2022-09-13T20:48:29.210Z,99887.34
2022-09-13T20:51:00.126Z,99888.34
2022-09-13T20:53:29.929Z,99881.72
2022-09-13T20:56:05.283Z,99887.53
2022-09-13T20:58:38.055Z,99889.53
2022-09-13T21:01:09.774Z,99896.88
2022-09-13T21:03:40.725Z,99893.50
2022-09-13T21:06:11.343Z,99896.66
2022-09-13T21:08:41.705Z,99904.16
2022-09-13T21:11:12.960Z,99905.72
2022-09-13T21:13:46.754Z,99903.34
2022-09-13T21:16:18.265Z,99905.59
2022-09-13T21:18:48.598Z,99915.06
2022-09-13T21:21:21.394Z,99912.38
2022-09-13T21:23:51.123Z,99914.50
2022-09-13T21:26:22.841Z,99910.72
2022-09-13T21:28:55.476Z,99908.50
2022-09-13T21:31:28.115Z,99906.22
2022-09-13T21:33:58.524Z,99911.47
2022-09-13T21:36:28.899Z,99919.06
2022-09-13T21:38:58.753Z,99913.56
2022-09-13T21:41:29.692Z,99926.94
2022-09-13T21:44:01.846Z,99927.25
2022-09-13T21:46:33.653Z,99916.00
2022-09-13T21:49:04.820Z,99913.72
2022-09-13T21:51:36.256Z,99923.75
2022-09-13T21:54:08.356Z,99913.19
2022-09-13T21:56:39.891Z,99913.28
2022-09-13T21:59:15.473Z,99913.97
2022-09-13T22:01:47.025Z,99915.09
2022-09-13T22:04:19.134Z,99915.41
2022-09-13T22:06:51.637Z,99898.06
2022-09-13T22:09:22.020Z,99899.63
2022-09-13T22:11:52.296Z,99902.44
2022-09-13T22:14:24.507Z,99914.28
2022-09-13T22:16:55.296Z,99912.84
2022-09-13T22:19:27.303Z,99916.94
2022-09-13T22:21:59.093Z,99903.00
2022-09-13T22:24:31.830Z,99911.16
2022-09-13T22:27:01.588Z,99909.72
2022-09-13T22:29:33.715Z,99911.84
2022-09-13T22:32:03.231Z,99902.00
2022-09-13T22:34:34.919Z,99901.97
2022-09-13T22:37:04.436Z,99898.47
2022-09-13T22:39:33.980Z,99898.88
2022-09-13T22:42:03.722Z,99903.50
2022-09-13T22:44:36.109Z,99904.91
2022-09-13T22:47:05.738Z,99905.34
2022-09-13T22:49:35.249Z,99905.72
2022-09-13T22:52:05.269Z,99906.53
2022-09-13T22:54:35.170Z,99898.09
2022-09-13T22:57:04.709Z,99900.31
2022-09-13T22:59:36.969Z,99900.75
2022-09-13T23:02:06.659Z,99900.91
2022-09-13T23:04:36.198Z,99889.31
2022-09-13T23:07:05.908Z,99894.19
2022-09-13T23:09:35.471Z,99892.78
2022-09-13T23:12:05.405Z,99886.00
2022-09-13T23:14:37.775Z,99881.22
2022-09-13T23:17:07.909Z,99877.97
2022-09-13T23:19:37.644Z,99880.91
2022-09-13T23:22:07.561Z,99874.00
2022-09-13T23:24:37.173Z,99872.47
2022-09-13T23:27:07.861Z,99868.34
2022-09-13T23:29:40.168Z,99858.09
2022-09-13T23:32:09.917Z,99859.31
2022-09-13T23:34:39.579Z,99862.13
2022-09-13T23:37:09.156Z,99853.56
2022-09-13T23:39:38.879Z,99868.00
2022-09-13T23:42:08.839Z,99862.09
2022-09-13T23:44:41.064Z,99867.81
2022-09-13T23:47:11.426Z,99874.53
2022-09-13T23:49:41.024Z,99864.94
2022-09-13T23:52:10.588Z,99854.41
2022-09-13T23:54:40.131Z,99850.91
2022-09-13T23:57:09.720Z,99849.06
2022-09-13T23:59:42.049Z,99854.69
